Time;durP1;ratioP1;P1;durP2;ratioP2;P2;SDS_P1;SDS_P2;PMS_P1;PMS_P2;Temp;Humidity;BMP_temperature;BMP_pressure;BME280_temperature;BME280_humidity;BME280_pressure;Samples;Min_cycle;Max_cycle;Signal;HPM_P1;HPM_P2
2023/05/15 00:01:10;;;;;;;;;;;;;;;11.47;73.87;92233.09;2055433;69;20166;-77
2023/05/15 00:03:35;;;;;;;;;;;;;;;11.55;72.95;92235.59;2055458;70;20138;-77
2023/05/15 00:06:02;;;;;;;;;;;;;;;11.54;73.32;92234.84;2055543;69;20066;-78
2023/05/15 00:08:28;;;;;;;;;;;;;;;11.44;73.70;92235.09;2068076;69;20189;-76
2023/05/15 00:10:54;;;;;;;;;;;;;;;11.54;73.16;92231.31;2065464;69;20215;-78
2023/05/15 00:13:20;;;;;;;;;;;;;;;11.52;72.78;92228.41;2055571;69;20062;-78
2023/05/15 00:15:47;;;;;;;;;;;;;;;11.55;72.65;92235.59;2055600;69;20089;-76
2023/05/15 00:18:13;;;;;;;;;;;;;;;11.45;73.70;92233.00;2055438;69;20070;-75
2023/05/15 00:20:39;;;;;;;;;;;;;;;11.51;74.33;92235.41;2055241;69;20054;-74
2023/05/15 00:23:05;;;;;;;;;;;;;;;11.48;73.51;92233.84;2055293;69;20436;-76
2023/05/15 00:25:30;;;;;;;;;;;;;;;11.40;73.90;92232.06;2055002;69;20117;-75
2023/05/15 00:27:57;;;;;;;;;;;;;;;11.43;73.47;92228.00;2055233;69;20137;-75
2023/05/15 00:30:24;;;;;;;;;;;;;;;11.42;73.85;92225.81;2067972;69;20058;-77
2023/05/15 00:32:50;;;;;;;;;;;;;;;11.51;73.12;92233.31;2055014;69;20120;-75
2023/05/15 00:35:16;;;;;;;;;;;;;;;11.48;73.35;92228.94;2067941;69;20050;-74
2023/05/15 00:37:42;;;;;;;;;;;;;;;11.51;72.92;92222.03;2067873;69;20057;-75
2023/05/15 00:40:11;;;;;;;;;;;;;;;11.41;74.48;92224.34;2055081;69;20058;-75
2023/05/15 00:42:37;;;;;;;;;;;;;;;11.46;73.34;92220.38;2065274;69;20080;-76
2023/05/15 00:45:04;;;;;;;;;;;;;;;11.46;73.15;92214.75;2054991;69;20054;-76
2023/05/15 00:47:33;;;;;;;;;;;;;;;11.44;74.11;92214.63;2067958;69;20047;-76
2023/05/15 00:50:00;;;;;;;;;;;;;;;11.43;73.25;92219.53;2067989;69;20042;-76
2023/05/15 00:52:26;;;;;;;;;;;;;;;11.41;73.25;92213.09;2055275;69;20054;-75
2023/05/15 00:54:51;;;;;;;;;;;;;;;11.43;73.06;92208.25;2055117;69;20054;-75
2023/05/15 00:57:18;;;;;;;;;;;;;;;11.38;74.06;92205.88;2068707;69;20525;-76
2023/05/15 00:59:44;;;;;;;;;;;;;;;11.41;73.11;92199.72;2069035;69;20050;-74
2023/05/15 01:02:18;;;;;;;;;;;;;;;11.39;73.64;92204.50;2069028;69;20115;-76
2023/05/15 01:04:44;;;;;;;;;;;;;;;11.33;73.60;92192.94;2068904;69;20452;-77
2023/05/15 01:07:09;;;;;;;;;;;;;;;11.33;74.00;92198.59;2056385;70;20429;-75
2023/05/15 01:09:36;;;;;;;;;;;;;;;11.32;74.66;92208.41;2069082;69;20139;-78
2023/05/15 01:12:03;;;;;;;;;;;;;;;11.26;74.87;92210.91;2056514;69;20454;-77
2023/05/15 01:14:30;;;;;;;;;;;;;;;11.28;73.88;92205.38;2047570;69;20105;-78
2023/05/15 01:16:59;;;;;;;;;;;;;;;11.28;73.85;92206.09;2069216;69;20161;-77
2023/05/15 01:19:25;;;;;;;;;;;;;;;11.35;73.83;92207.13;2066503;69;20105;-76
2023/05/15 01:22:10;;;;;;;;;;;;;;;11.27;73.93;92204.66;2056321;69;20473;-76
2023/05/15 01:24:58;;;;;;;;;;;;;;;11.36;73.28;92212.16;2056167;69;20043;-76
2023/05/15 01:27:33;;;;;;;;;;;;;;;11.32;74.50;92211.22;2056801;69;20059;-78
2023/05/15 01:30:02;;;;;;;;;;;;;;;11.37;73.62;92212.88;2056161;70;20058;-76
2023/05/15 01:32:33;;;;;;;;;;;;;;;11.32;74.32;92214.03;2069185;69;20093;-77
2023/05/15 01:35:11;;;;;;;;;;;;;;;11.26;74.76;92206.00;2056084;70;20385;-76
2023/05/15 01:37:41;;;;;;;;;;;;;;;11.26;74.13;92211.63;2056045;69;20086;-76
2023/05/15 01:40:09;;;;;;;;;;;;;;;11.33;73.60;92209.84;2056028;69;20189;-76
2023/05/15 01:42:35;;;;;;;;;;;;;;;11.28;73.49;92203.28;2056104;69;20035;-75
2023/05/15 01:45:02;;;;;;;;;;;;;;;11.02;74.88;92207.59;2068924;69;20165;-75
2023/05/15 01:47:39;;;;;;;;;;;;;;;11.23;74.59;92212.91;2069005;69;20061;-74
2023/05/15 01:50:06;;;;;;;;;;;;;;;11.22;76.18;92216.31;2068912;69;20122;-76
2023/05/15 01:52:33;;;;;;;;;;;;;;;11.30;74.83;92211.09;2068906;69;20133;-77
2023/05/15 01:55:01;;;;;;;;;;;;;;;11.34;73.68;92208.50;2071713;69;20088;-76
2023/05/15 01:57:29;;;;;;;;;;;;;;;11.32;74.55;92214.03;2069055;69;20082;-76
2023/05/15 01:59:58;;;;;;;;;;;;;;;11.35;73.68;92221.22;2069313;69;20098;-77
2023/05/15 02:02:25;;;;;;;;;;;;;;;11.34;74.22;92216.94;2069485;69;20176;-77
2023/05/15 02:04:55;;;;;;;;;;;;;;;11.14;75.23;92222.28;2069230;69;20164;-77
2023/05/15 02:07:22;;;;;;;;;;;;;;;11.29;74.49;92227.28;2068913;69;20122;-77
2023/05/15 02:09:48;;;;;;;;;;;;;;;11.29;74.21;92227.28;2055573;70;20097;-76
2023/05/15 02:12:14;;;;;;;;;;;;;;;11.31;74.92;92235.81;2055858;69;20115;-76
2023/05/15 02:14:44;;;;;;;;;;;;;;;11.29;74.98;92230.09;2056683;70;20066;-77
2023/05/15 02:17:18;;;;;;;;;;;;;;;11.34;74.85;92234.56;2068688;69;20514;-76
2023/05/15 02:19:44;;;;;;;;;;;;;;;11.41;73.78;92241.25;2056151;69;20480;-77
2023/05/15 02:22:12;;;;;;;;;;;;;;;11.37;74.65;92243.88;2069062;69;20054;-74
2023/05/15 02:24:39;;;;;;;;;;;;;;;11.40;74.15;92243.34;2056440;69;20058;-75
2023/05/15 02:27:12;;;;;;;;;;;;;;;11.48;73.72;92243.00;2069532;69;20511;-77
2023/05/15 02:29:50;;;;;;;;;;;;;;;11.31;73.99;92238.66;2069426;69;20451;-77
2023/05/15 02:32:22;;;;;;;;;;;;;;;10.82;77.61;92244.59;2057095;69;20046;-75
2023/05/15 02:34:54;;;;;;;;;;;;;;;11.01;76.90;92235.03;2069246;69;20065;-77
2023/05/15 02:37:23;;;;;;;;;;;;;;;11.21;76.26;92229.69;2069971;69;20165;-77
2023/05/15 02:39:53;;;;;;;;;;;;;;;11.25;76.70;92224.25;2068137;69;20127;-76
2023/05/15 02:42:19;;;;;;;;;;;;;;;11.33;75.36;92226.75;2056394;70;20053;-76
2023/05/15 02:44:45;;;;;;;;;;;;;;;11.33;74.39;92227.50;2056310;70;20068;-77
2023/05/15 02:47:14;;;;;;;;;;;;;;;11.26;74.49;92222.16;2068686;69;20062;-77
2023/05/15 02:49:40;;;;;;;;;;;;;;;11.03;75.97;92223.13;2055785;70;20481;-77
2023/05/15 02:52:06;;;;;;;;;;;;;;;11.10;76.39;92231.25;2068760;69;20061;-76
2023/05/15 02:54:31;;;;;;;;;;;;;;;11.26;74.70;92234.16;2068528;69;20058;-75
2023/05/15 02:56:57;;;;;;;;;;;;;;;11.24;74.56;92224.91;2055612;69;20074;-76
2023/05/15 02:59:24;;;;;;;;;;;;;;;11.24;74.85;92224.91;2065809;69;20476;-74
2023/05/15 03:01:51;;;;;;;;;;;;;;;11.29;74.11;92224.47;2055802;70;20140;-74
2023/05/15 03:04:16;;;;;;;;;;;;;;;11.29;73.40;92226.56;2055733;70;20108;-76
2023/05/15 03:06:42;;;;;;;;;;;;;;;10.91;74.98;92223.97;2055688;69;20076;-76
2023/05/15 03:09:08;;;;;;;;;;;;;;;10.82;76.14;92232.63;2055508;70;20050;-74
2023/05/15 03:11:33;;;;;;;;;;;;;;;11.15;74.12;92232.94;2055563;70;20047;-76
2023/05/15 03:14:00;;;;;;;;;;;;;;;11.23;74.01;92226.97;2068483;69;20541;-76
2023/05/15 03:16:25;;;;;;;;;;;;;;;11.22;73.85;92224.78;2055462;69;20142;-77
2023/05/15 03:18:51;;;;;;;;;;;;;;;11.26;73.66;92231.34;2055549;70;20050;-75
2023/05/15 03:21:17;;;;;;;;;;;;;;;11.22;74.37;92236.03;2068452;69;20073;-76
2023/05/15 03:23:43;;;;;;;;;;;;;;;11.08;73.69;92233.97;2068256;69;20200;-76
2023/05/15 03:26:08;;;;;;;;;;;;;;;11.20;73.33;92245.13;2055387;70;20057;-77
2023/05/15 03:28:34;;;;;;;;;;;;;;;11.14;74.81;92239.91;2055837;69;20051;-76
2023/05/15 03:30:59;;;;;;;;;;;;;;;11.14;73.93;92242.00;2055863;69;20555;-76
2023/05/15 03:33:26;;;;;;;;;;;;;;;11.09;74.28;92237.53;2055835;69;20299;-75
2023/05/15 03:35:54;;;;;;;;;;;;;;;11.16;73.16;92233.66;2068315;69;20057;-77
2023/05/15 03:38:20;;;;;;;;;;;;;;;11.16;73.16;92239.28;2055569;70;20568;-75
2023/05/15 03:40:47;;;;;;;;;;;;;;;11.15;73.41;92237.84;2055365;70;20284;-78
2023/05/15 03:43:12;;;;;;;;;;;;;;;11.18;73.51;92236.59;2055621;69;20074;-77
2023/05/15 03:45:39;;;;;;;;;;;;;;;11.09;73.49;92232.63;2051960;69;20450;-77
2023/05/15 03:48:05;;;;;;;;;;;;;;;11.05;73.76;92240.13;2049090;70;20051;-76
2023/05/15 03:50:30;;;;;;;;;;;;;;;11.05;73.69;92238.06;2048426;70;20055;-77
2023/05/15 03:52:58;;;;;;;;;;;;;;;11.02;74.43;92232.94;2048304;70;20070;-77
2023/05/15 03:55:23;;;;;;;;;;;;;;;11.03;74.16;92245.66;2048767;70;20501;-77
2023/05/15 03:57:50;;;;;;;;;;;;;;;11.07;73.92;92237.41;2049037;70;20472;-76
2023/05/15 04:00:15;;;;;;;;;;;;;;;11.09;73.80;92238.25;2048998;70;20046;-75
2023/05/15 04:02:41;;;;;;;;;;;;;;;11.09;74.43;92243.91;2048944;70;20047;-75
2023/05/15 04:05:07;;;;;;;;;;;;;;;11.04;74.13;92244.28;2049127;70;20079;-76
2023/05/15 04:07:34;;;;;;;;;;;;;;;11.06;73.96;92245.13;2048910;69;20051;-75
2023/05/15 04:10:03;;;;;;;;;;;;;;;11.07;74.24;92238.13;2048931;70;20121;-75
2023/05/15 04:12:31;;;;;;;;;;;;;;;11.07;73.71;92246.59;2048887;70;20058;-77
2023/05/15 04:14:58;;;;;;;;;;;;;;;11.10;73.71;92250.97;2049013;70;20138;-75
2023/05/15 04:17:25;;;;;;;;;;;;;;;11.08;73.66;92245.22;2045474;69;20091;-75
2023/05/15 04:19:50;;;;;;;;;;;;;;;11.10;74.03;92253.78;2048406;70;20047;-75
2023/05/15 04:22:16;;;;;;;;;;;;;;;11.10;74.34;92248.16;2048872;70;20194;-75
2023/05/15 04:24:41;;;;;;;;;;;;;;;11.18;73.58;92250.69;2048739;69;20555;-76
2023/05/15 04:27:07;;;;;;;;;;;;;;;11.19;74.59;92261.31;2048221;70;20517;-75
2023/05/15 04:29:32;;;;;;;;;;;;;;;11.24;74.40;92253.06;2048849;70;20077;-76
2023/05/15 04:31:57;;;;;;;;;;;;;;;11.25;74.53;92255.25;2048151;69;20090;-75
2023/05/15 04:34:23;;;;;;;;;;;;;;;11.16;75.06;92264.63;2048168;70;20098;-76
2023/05/15 04:36:50;;;;;;;;;;;;;;;11.24;74.47;92250.97;2048763;69;20114;-74
2023/05/15 04:39:15;;;;;;;;;;;;;;;11.25;73.53;92252.44;2048682;69;20050;-76
2023/05/15 04:41:43;;;;;;;;;;;;;;;11.28;73.85;92262.47;2048321;69;20154;-76
2023/05/15 04:44:08;;;;;;;;;;;;;;;11.29;74.04;92266.00;2050137;69;20435;-77
2023/05/15 04:46:36;;;;;;;;;;;;;;;11.26;74.24;92264.44;2068297;69;20495;-77
2023/05/15 04:49:02;;;;;;;;;;;;;;;11.29;73.74;92257.56;2055382;70;20506;-77
2023/05/15 04:51:28;;;;;;;;;;;;;;;11.25;74.37;92260.16;2068203;69;20090;-77
2023/05/15 04:53:56;;;;;;;;;;;;;;;11.36;72.86;92253.66;2055351;69;20058;-77
2023/05/15 04:56:22;;;;;;;;;;;;;;;11.36;74.20;92260.06;2055250;69;20042;-77
2023/05/15 04:58:48;;;;;;;;;;;;;;;11.32;74.34;92261.94;2055421;70;20486;-77
2023/05/15 05:01:15;;;;;;;;;;;;;;;11.34;74.32;92257.13;2055248;70;20115;-78
2023/05/15 05:03:41;;;;;;;;;;;;;;;11.39;74.41;92258.78;2055409;70;20054;-75
2023/05/15 05:06:07;;;;;;;;;;;;;;;11.34;74.56;92265.56;2055163;70;20496;-75
2023/05/15 05:08:33;;;;;;;;;;;;;;;11.31;73.70;92263.28;2055119;70;20143;-74
2023/05/15 05:10:58;;;;;;;;;;;;;;;10.96;76.10;92269.25;2055197;70;20096;-76
2023/05/15 05:13:24;;;;;;;;;;;;;;;11.08;75.69;92269.84;2055482;70;20058;-76
2023/05/15 05:15:50;;;;;;;;;;;;;;;11.18;75.31;92261.94;2055345;70;20062;-76
2023/05/15 05:18:15;;;;;;;;;;;;;;;11.30;74.68;92271.00;2055474;70;20050;-77
2023/05/15 05:20:41;;;;;;;;;;;;;;;11.36;73.84;92264.94;2055299;69;20054;-77
2023/05/15 05:23:08;;;;;;;;;;;;;;;11.44;73.94;92266.09;2055203;70;20070;-76
2023/05/15 05:25:36;;;;;;;;;;;;;;;11.50;74.18;92262.88;2055104;69;20140;-76
2023/05/15 05:28:01;;;;;;;;;;;;;;;11.45;74.43;92259.09;2068079;69;20448;-78
2023/05/15 05:30:27;;;;;;;;;;;;;;;11.55;72.79;92267.34;2055212;69;20077;-77
2023/05/15 05:32:52;;;;;;;;;;;;;;;11.47;74.45;92266.94;2055280;69;20055;-77
2023/05/15 05:35:18;;;;;;;;;;;;;;;11.59;73.59;92270.38;2068255;69;20062;-78
2023/05/15 05:37:44;;;;;;;;;;;;;;;11.65;74.37;92275.56;2055127;70;20149;-78
2023/05/15 05:40:10;;;;;;;;;;;;;;;11.78;73.54;92272.00;2055200;69;20080;-78
2023/05/15 05:42:37;;;;;;;;;;;;;;;11.75;73.88;92275.34;2055395;69;20473;-77
2023/05/15 05:45:05;;;;;;;;;;;;;;;11.73;74.04;92283.69;2057957;69;20433;-78
2023/05/15 05:47:31;;;;;;;;;;;;;;;11.82;74.13;92283.50;2048766;70;20058;-75
2023/05/15 05:49:56;;;;;;;;;;;;;;;11.86;74.07;92283.69;2045786;70;20105;-76
2023/05/15 05:52:22;;;;;;;;;;;;;;;11.93;72.46;92291.09;2045961;70;20090;-75
2023/05/15 05:54:47;;;;;;;;;;;;;;;11.88;73.22;92292.28;2042469;70;20517;-76
2023/05/15 05:57:13;;;;;;;;;;;;;;;11.92;74.21;92294.56;2045940;70;20063;-76
2023/05/15 05:59:39;;;;;;;;;;;;;;;11.90;72.97;92298.00;2045771;70;20142;-75
2023/05/15 06:02:05;;;;;;;;;;;;;;;11.95;73.08;92296.84;2045996;70;20136;-75
2023/05/15 06:04:32;;;;;;;;;;;;;;;11.98;72.96;92305.41;2045777;70;20514;-76
2023/05/15 06:06:58;;;;;;;;;;;;;;;11.85;74.57;92306.88;2042550;70;20063;-76
2023/05/15 06:09:23;;;;;;;;;;;;;;;11.58;75.50;92310.44;2045123;70;20434;-77
2023/05/15 06:11:50;;;;;;;;;;;;;;;11.86;74.17;92305.53;2045815;70;20048;-76
2023/05/15 06:14:16;;;;;;;;;;;;;;;11.87;74.04;92310.56;2045795;70;20077;-75
2023/05/15 06:16:41;;;;;;;;;;;;;;;12.06;73.66;92308.63;2045726;70;20048;-75
2023/05/15 06:19:13;;;;;;;;;;;;;;;12.32;73.63;92309.88;2045810;70;20437;-73
2023/05/15 06:21:41;;;;;;;;;;;;;;;12.53;72.22;92308.78;2046747;70;20087;-76
2023/05/15 06:24:07;;;;;;;;;;;;;;;12.63;71.98;92302.88;2047681;70;20059;-76
2023/05/15 06:26:32;;;;;;;;;;;;;;;12.69;71.52;92317.25;2046036;70;20081;-76
2023/05/15 06:28:59;;;;;;;;;;;;;;;12.63;70.97;92305.69;2046159;70;20443;-75
2023/05/15 06:31:24;;;;;;;;;;;;;;;12.64;70.95;92307.88;2046604;70;20140;-75
2023/05/15 06:33:50;;;;;;;;;;;;;;;12.69;72.72;92300.31;2046380;70;20471;-77
2023/05/15 06:36:18;;;;;;;;;;;;;;;12.62;70.85;92307.06;2045776;70;20051;-76
2023/05/15 06:38:44;;;;;;;;;;;;;;;12.53;70.99;92308.03;2045889;70;20139;-79
2023/05/15 06:41:10;;;;;;;;;;;;;;;12.46;71.80;92307.78;2045734;70;20150;-75
2023/05/15 06:43:35;;;;;;;;;;;;;;;12.84;70.71;92304.56;2045401;70;20102;-78
2023/05/15 06:46:00;;;;;;;;;;;;;;;12.61;70.61;92314.09;2052154;70;20173;-76
2023/05/15 06:48:27;;;;;;;;;;;;;;;12.49;70.89;92314.22;2053124;70;20073;-75
2023/05/15 06:50:53;;;;;;;;;;;;;;;12.60;68.66;92306.97;2053418;70;20050;-73
2023/05/15 06:53:19;;;;;;;;;;;;;;;12.46;70.94;92302.13;2053662;70;20423;-74
2023/05/15 06:55:45;;;;;;;;;;;;;;;12.31;71.03;92302.78;2052664;70;20107;-74
2023/05/15 06:58:11;;;;;;;;;;;;;;;12.86;68.70;92298.97;2053604;70;20054;-74
2023/05/15 07:00:39;;;;;;;;;;;;;;;13.12;69.02;92299.47;2066963;69;20312;-75
2023/05/15 07:03:05;;;;;;;;;;;;;;;13.19;68.94;92304.00;2054108;70;20281;-76
2023/05/15 07:05:30;;;;;;;;;;;;;;;13.04;68.02;92293.44;2052709;70;20053;-75
2023/05/15 07:07:57;;;;;;;;;;;;;;;12.65;70.09;92303.72;2052437;70;20413;-76
2023/05/15 07:10:23;;;;;;;;;;;;;;;12.81;68.54;92314.28;2052101;70;20053;-74
2023/05/15 07:12:48;;;;;;;;;;;;;;;12.76;69.85;92315.47;2064623;69;20058;-74
2023/05/15 07:15:16;;;;;;;;;;;;;;;12.88;68.33;92319.59;2052197;70;20539;-74
2023/05/15 07:17:42;;;;;;;;;;;;;;;13.04;68.33;92321.69;2052305;70;20146;-76
2023/05/15 07:20:08;;;;;;;;;;;;;;;13.20;68.06;92330.91;2052173;70;20169;-76
2023/05/15 07:22:34;;;;;;;;;;;;;;;12.79;67.84;92329.06;2052400;70;20055;-75
2023/05/15 07:25:01;;;;;;;;;;;;;;;12.98;67.43;92328.53;2052221;70;20057;-76
2023/05/15 07:27:26;;;;;;;;;;;;;;;13.33;67.27;92326.56;2052240;70;20055;-76
2023/05/15 07:29:53;;;;;;;;;;;;;;;13.36;66.34;92331.66;2052205;70;20051;-76
2023/05/15 07:32:18;;;;;;;;;;;;;;;13.53;65.44;92324.63;2052300;70;20103;-77
2023/05/15 07:34:44;;;;;;;;;;;;;;;13.34;63.22;92320.28;2065206;69;20051;-75
2023/05/15 07:37:11;;;;;;;;;;;;;;;13.65;64.19;92310.28;2052290;70;20448;-75
2023/05/15 07:39:36;;;;;;;;;;;;;;;13.84;63.71;92318.19;2052163;70;20090;-75
2023/05/15 07:42:03;;;;;;;;;;;;;;;14.12;67.01;92315.09;2052164;69;20083;-75
2023/05/15 07:44:28;;;;;;;;;;;;;;;14.27;66.78;92311.47;2064945;69;20418;-76
2023/05/15 07:46:55;;;;;;;;;;;;;;;14.07;68.67;92308.53;2065215;69;20120;-78
2023/05/15 07:49:22;;;;;;;;;;;;;;;14.21;66.09;92303.47;2065150;69;20449;-75
2023/05/15 07:51:47;;;;;;;;;;;;;;;14.34;64.20;92303.94;2052124;70;20520;-75
2023/05/15 07:54:12;;;;;;;;;;;;;;;14.05;63.79;92305.63;2064902;69;20094;-77
2023/05/15 07:56:38;;;;;;;;;;;;;;;14.27;63.66;92310.75;2065177;69;20050;-76
2023/05/15 07:59:03;;;;;;;;;;;;;;;14.31;64.41;92305.97;2052215;70;20486;-75
2023/05/15 08:01:29;;;;;;;;;;;;;;;14.42;65.35;92307.09;2052476;70;20082;-75
2023/05/15 08:03:54;;;;;;;;;;;;;;;14.51;63.62;92308.91;2052117;70;20054;-75
2023/05/15 08:06:20;;;;;;;;;;;;;;;14.60;64.17;92309.97;2051907;70;20486;-75
2023/05/15 08:08:45;;;;;;;;;;;;;;;14.52;63.86;92303.97;2065035;69;20133;-75
2023/05/15 08:11:10;;;;;;;;;;;;;;;14.01;64.83;92308.28;2051919;70;20477;-75
2023/05/15 08:13:36;;;;;;;;;;;;;;;13.94;64.28;92307.31;2052001;70;20138;-76
2023/05/15 08:16:04;;;;;;;;;;;;;;;13.89;64.15;92314.16;2052094;70;20089;-78
2023/05/15 08:18:30;;;;;;;;;;;;;;;14.18;62.48;92298.38;2052160;70;20054;-76
2023/05/15 08:20:55;;;;;;;;;;;;;;;14.06;62.70;92300.69;2065007;69;20565;-76
2023/05/15 08:23:22;;;;;;;;;;;;;;;14.67;62.70;92298.25;2052285;70;20214;-74
2023/05/15 08:25:50;;;;;;;;;;;;;;;14.40;61.72;92309.88;2051935;70;20165;-75
2023/05/15 08:28:16;;;;;;;;;;;;;;;14.26;62.01;92298.69;2052030;70;20058;-74
2023/05/15 08:30:42;;;;;;;;;;;;;;;14.09;61.27;92302.22;2052192;70;20054;-76
2023/05/15 08:33:07;;;;;;;;;;;;;;;14.84;61.15;92305.25;2052202;70;20078;-76
2023/05/15 08:35:33;;;;;;;;;;;;;;;15.04;58.84;92296.81;2052016;70;20043;-77
2023/05/15 08:37:59;;;;;;;;;;;;;;;15.19;59.13;92295.22;2052057;70;20138;-76
2023/05/15 08:40:25;;;;;;;;;;;;;;;15.68;58.04;92294.94;2064903;69;20576;-77
2023/05/15 08:42:55;;;;;;;;;;;;;;;16.40;61.76;92285.97;2051975;70;20062;-74
2023/05/15 08:45:20;;;;;;;;;;;;;;;16.73;61.79;92287.78;2051822;70;20553;-75
2023/05/15 08:47:46;;;;;;;;;;;;;;;17.60;60.54;92283.25;2064824;69;20136;-77
2023/05/15 08:50:14;;;;;;;;;;;;;;;17.92;56.10;92275.63;2064841;69;20081;-76
2023/05/15 08:52:41;;;;;;;;;;;;;;;18.32;54.90;92278.06;2051886;70;20110;-76
2023/05/15 08:55:09;;;;;;;;;;;;;;;18.78;55.12;92280.66;2051878;70;20264;-76
2023/05/15 08:57:35;;;;;;;;;;;;;;;18.35;53.14;92271.03;2052259;70;20055;-77
2023/05/15 09:00:02;;;;;;;;;;;;;;;18.39;51.46;92271.13;2052015;70;20043;-76
2023/05/15 09:02:27;;;;;;;;;;;;;;;19.16;51.45;92263.72;2051991;70;20086;-77
2023/05/15 09:04:53;;;;;;;;;;;;;;;19.60;48.82;92257.50;2052108;70;20450;-77
2023/05/15 09:07:19;;;;;;;;;;;;;;;19.81;47.79;92261.50;2064994;69;20051;-75
2023/05/15 09:09:46;;;;;;;;;;;;;;;20.12;46.52;92259.22;2064827;69;20058;-74
2023/05/15 09:12:17;;;;;;;;;;;;;;;19.61;46.41;92267.53;2052090;70;20062;-75
2023/05/15 09:14:42;;;;;;;;;;;;;;;21.20;45.71;92273.19;2052110;70;20046;-78
2023/05/15 09:17:11;;;;;;;;;;;;;;;21.17;41.80;92256.69;2064910;69;20123;-77
2023/05/15 09:19:41;;;;;;;;;;;;;;;22.38;40.94;92267.50;2052913;69;20056;-78
2023/05/15 09:22:19;;;;;;;;;;;;;;;22.45;43.19;92260.41;2052531;70;20058;-76
2023/05/15 09:24:46;;;;;;;;;;;;;;;23.19;41.54;92250.31;2065370;69;20458;-77
2023/05/15 09:27:13;;;;;;;;;;;;;;;23.21;38.62;92251.03;2062541;69;20481;-76
2023/05/15 09:29:40;;;;;;;;;;;;;;;20.90;40.43;92244.84;2052525;70;20112;-77
2023/05/15 09:32:07;;;;;;;;;;;;;;;21.19;42.51;92242.41;2052528;70;20108;-76
2023/05/15 09:34:41;;;;;;;;;;;;;;;21.17;41.46;92240.25;2052444;70;20485;-77
2023/05/15 09:37:07;;;;;;;;;;;;;;;22.82;41.60;92247.84;2052589;70;20097;-75
2023/05/15 09:39:34;;;;;;;;;;;;;;;23.00;39.43;92247.31;2065247;69;20046;-75
2023/05/15 09:42:07;;;;;;;;;;;;;;;21.55;40.03;92254.38;2052398;70;20138;-78
2023/05/15 09:44:33;;;;;;;;;;;;;;;22.03;41.23;92244.19;2065328;69;20066;-74
2023/05/15 09:47:00;;;;;;;;;;;;;;;22.02;39.39;92240.59;2052516;69;20046;-74
2023/05/15 09:49:29;;;;;;;;;;;;;;;22.08;37.89;92248.53;2052335;70;20058;-74
2023/05/15 09:51:59;;;;;;;;;;;;;;;22.18;36.06;92245.09;2052548;70;20059;-79
2023/05/15 09:54:26;;;;;;;;;;;;;;;23.26;36.74;92238.13;2052348;70;20057;-76
2023/05/15 09:56:52;;;;;;;;;;;;;;;23.77;36.60;92243.44;2052539;70;20061;-78
2023/05/15 09:59:20;;;;;;;;;;;;;;;23.02;35.92;92240.84;2052414;70;20074;-76
2023/05/15 10:01:47;;;;;;;;;;;;;;;25.26;32.45;92238.00;2065376;69;20142;-78
2023/05/15 10:04:13;;;;;;;;;;;;;;;23.62;34.01;92234.03;2052234;70;20061;-76
2023/05/15 10:06:40;;;;;;;;;;;;;;;23.09;34.23;92233.69;2052580;70;20436;-76
2023/05/15 10:09:06;;;;;;;;;;;;;;;22.68;34.48;92232.66;2052536;70;20057;-78
2023/05/15 10:11:33;;;;;;;;;;;;;;;21.78;37.91;92231.72;2052308;70;20093;-76
2023/05/15 10:13:59;;;;;;;;;;;;;;;22.17;36.87;92227.16;2065325;69;20094;-77
2023/05/15 10:16:26;;;;;;;;;;;;;;;21.91;36.05;92227.59;2052574;69;20094;-76
2023/05/15 10:18:52;;;;;;;;;;;;;;;22.72;37.95;92226.94;2066258;69;20057;-77
2023/05/15 10:21:19;;;;;;;;;;;;;;;19.90;39.52;92219.53;2055060;70;20393;-75
2023/05/15 10:23:45;;;;;;;;;;;;;;;19.96;40.70;92231.78;2067237;69;20169;-75
2023/05/15 10:26:18;;;;;;;;;;;;;;;20.48;40.02;92222.75;2053686;70;20057;-76
2023/05/15 10:28:44;;;;;;;;;;;;;;;22.94;36.90;92214.94;2054164;70;20082;-75
2023/05/15 10:31:12;;;;;;;;;;;;;;;22.84;35.66;92212.69;2055037;70;20054;-74
2023/05/15 10:33:38;;;;;;;;;;;;;;;23.01;36.88;92204.97;2055382;70;20141;-75
2023/05/15 10:36:04;;;;;;;;;;;;;;;22.16;35.60;92205.66;2053802;70;20137;-78
2023/05/15 10:38:30;;;;;;;;;;;;;;;23.67;34.01;92200.31;2052687;70;20051;-78
2023/05/15 10:40:59;;;;;;;;;;;;;;;24.57;33.35;92195.53;2052629;69;20059;-77
2023/05/15 10:43:25;;;;;;;;;;;;;;;24.37;32.33;92195.50;2065369;69;20054;-78
2023/05/15 10:45:51;;;;;;;;;;;;;;;23.91;33.05;92193.94;2052383;70;20050;-76
2023/05/15 10:48:19;;;;;;;;;;;;;;;22.55;33.68;92194.56;2064251;69;20436;-75
2023/05/15 10:50:47;;;;;;;;;;;;;;;24.98;31.67;92198.41;2067565;69;20047;-76
2023/05/15 10:53:12;;;;;;;;;;;;;;;29.81;26.62;92202.47;2055059;70;20051;-75
2023/05/15 10:55:38;;;;;;;;;;;;;;;28.46;25.39;92200.34;2068169;69;20075;-76
2023/05/15 10:58:09;;;;;;;;;;;;;;;32.33;25.58;92203.09;2055147;70;20457;-75
2023/05/15 11:00:43;;;;;;;;;;;;;;;34.59;21.37;92195.72;2055781;69;20117;-77
2023/05/15 11:03:20;;;;;;;;;;;;;;;32.59;21.89;92190.00;2066455;69;20070;-76
2023/05/15 11:06:05;;;;;;;;;;;;;;;26.29;26.78;92184.31;2052971;70;20047;-77
2023/05/15 11:08:31;;;;;;;;;;;;;;;25.27;28.46;92176.06;2052472;70;20051;-77
2023/05/15 11:10:57;;;;;;;;;;;;;;;25.30;29.72;92175.34;2052363;70;20140;-78
2023/05/15 11:13:23;;;;;;;;;;;;;;;23.76;32.01;92184.53;2052336;69;20089;-77
2023/05/15 11:15:48;;;;;;;;;;;;;;;20.45;35.21;92197.63;2052425;70;20090;-78
2023/05/15 11:18:18;;;;;;;;;;;;;;;20.49;36.31;92181.28;2052328;70;20049;-77
2023/05/15 11:20:53;;;;;;;;;;;;;;;21.46;34.72;92184.09;2065253;69;20050;-78
2023/05/15 11:23:22;;;;;;;;;;;;;;;21.44;34.59;92177.63;2052300;70;20165;-77
2023/05/15 11:25:55;;;;;;;;;;;;;;;21.74;34.53;92177.25;2052191;70;20045;-76
2023/05/15 11:28:21;;;;;;;;;;;;;;;20.25;36.47;92170.16;2052438;70;20481;-79
2023/05/15 11:30:53;;;;;;;;;;;;;;;20.78;35.67;92173.13;2052430;70;20142;-78
2023/05/15 11:33:20;;;;;;;;;;;;;;;24.43;31.21;92175.38;2052382;69;20078;-78
2023/05/15 11:35:46;;;;;;;;;;;;;;;28.34;27.01;92178.03;2052172;70;20502;-78
2023/05/15 11:38:16;;;;;;;;;;;;;;;26.43;27.33;92178.47;2065196;69;20079;-75
2023/05/15 11:40:51;;;;;;;;;;;;;;;21.06;33.11;92181.41;2052045;70;20500;-76
2023/05/15 11:43:19;;;;;;;;;;;;;;;21.15;33.67;92176.50;2052167;70;20163;-75
2023/05/15 11:45:54;;;;;;;;;;;;;;;21.63;34.65;92178.56;2052185;70;20085;-79
2023/05/15 11:48:22;;;;;;;;;;;;;;;20.97;32.57;92177.69;2052119;70;20401;-78
2023/05/15 11:50:47;;;;;;;;;;;;;;;20.16;34.29;92174.31;2052152;70;20054;-78
2023/05/15 11:53:13;;;;;;;;;;;;;;;20.53;34.02;92177.78;2064961;69;20051;-79
2023/05/15 11:55:40;;;;;;;;;;;;;;;20.33;35.02;92181.00;2052120;70;20112;-76
2023/05/15 11:58:10;;;;;;;;;;;;;;;21.10;33.67;92184.31;2052304;70;20055;-76
2023/05/15 12:00:36;;;;;;;;;;;;;;;21.39;33.02;92181.84;2052162;70;20100;-75
2023/05/15 12:03:02;;;;;;;;;;;;;;;21.17;34.04;92185.13;2065189;69;20055;-77
2023/05/15 12:05:28;;;;;;;;;;;;;;;22.24;32.64;92193.56;2065287;69;20470;-78
2023/05/15 12:07:53;;;;;;;;;;;;;;;21.60;33.94;92195.00;2064865;69;20087;-76
2023/05/15 12:10:19;;;;;;;;;;;;;;;19.87;36.14;92189.50;2051940;70;20500;-75
2023/05/15 12:12:46;;;;;;;;;;;;;;;19.79;36.64;92187.94;2052075;70;20053;-75
2023/05/15 12:15:13;;;;;;;;;;;;;;;18.46;39.27;92192.19;2052074;70;20520;-75
2023/05/15 12:17:39;;;;;;;;;;;;;;;18.42;39.53;92194.97;2052068;70;20081;-76
2023/05/15 12:20:24;;;;;;;;;;;;;;;18.36;40.11;92195.53;2065015;69;20410;-77
2023/05/15 12:22:49;;;;;;;;;;;;;;;18.72;39.75;92198.56;2052197;70;20152;-76
2023/05/15 12:25:15;;;;;;;;;;;;;;;19.19;37.97;92202.41;2052065;70;20556;-76
2023/05/15 12:27:41;;;;;;;;;;;;;;;19.35;38.96;92198.47;2052089;70;20119;-77
2023/05/15 12:30:09;;;;;;;;;;;;;;;19.42;38.39;92200.75;2052226;70;20050;-79
2023/05/15 12:32:35;;;;;;;;;;;;;;;18.20;40.58;92201.59;2052086;70;20119;-75
2023/05/15 12:35:02;;;;;;;;;;;;;;;17.58;43.63;92201.38;2052106;70;20086;-77
2023/05/15 12:37:29;;;;;;;;;;;;;;;17.96;44.74;92203.81;2052175;70;20070;-79
2023/05/15 12:39:56;;;;;;;;;;;;;;;16.73;47.10;92213.91;2053082;70;20055;-76
2023/05/15 12:42:22;;;;;;;;;;;;;;;17.96;44.66;92209.50;2052845;69;20089;-76
2023/05/15 12:44:49;;;;;;;;;;;;;;;17.70;43.88;92218.78;2052082;70;20067;-75
2023/05/15 12:47:20;;;;;;;;;;;;;;;16.59;45.47;92219.84;2064839;69;20116;-76